Time;durP1;ratioP1;P1;durP2;ratioP2;P2;SDS_P1;SDS_P2;PMS_P1;PMS_P2;Temp;Humidity;BMP_temperature;BMP_pressure;BME280_temperature;BME280_humidity;BME280_pressure;Samples;Min_cycle;Max_cycle;Signal;HPM_P1;HPM_P2
2021/07/12 00:02:06;;;;;;;17.00;15.30;;;19.30;99.90;;;;;;5003850;28;20211;-86
2021/07/12 00:04:35;;;;;;;18.27;14.90;;;19.30;99.90;;;;;;4992112;28;20204;-84
2021/07/12 00:07:04;;;;;;;17.10;15.07;;;19.20;99.90;;;;;;4980127;28;20685;-89
2021/07/12 00:09:32;;;;;;;18.53;15.67;;;19.20;99.90;;;;;;4988802;28;20201;-86
2021/07/12 00:12:01;;;;;;;16.87;14.70;;;19.20;99.90;;;;;;4986262;28;20200;-86
2021/07/12 00:14:32;;;;;;;18.77;15.80;;;19.20;99.90;;;;;;4966250;28;20216;-88
2021/07/12 00:17:01;;;;;;;17.60;15.70;;;19.20;99.90;;;;;;4982747;28;20692;-86
2021/07/12 00:19:30;;;;;;;17.23;15.37;;;19.20;99.90;;;;;;4984519;28;20234;-86
2021/07/12 00:21:59;;;;;;;18.40;15.77;;;19.10;99.90;;;;;;4981945;28;20206;-85
2021/07/12 00:24:28;;;;;;;16.77;14.97;;;19.20;99.90;;;;;;4984775;28;20204;-85
2021/07/12 00:26:57;;;;;;;17.90;14.93;;;19.20;99.90;;;;;;4983872;28;20208;-86
2021/07/12 00:29:26;;;;;;;35.27;28.33;;;19.10;99.90;;;;;;4986877;28;20208;-87
2021/07/12 00:31:57;;;;;;;20.13;16.27;;;19.00;99.90;;;;;;4986181;28;20220;-84
2021/07/12 00:34:26;;;;;;;16.90;15.10;;;19.00;99.90;;;;;;4989654;28;20240;-85
2021/07/12 00:36:55;;;;;;;16.47;14.50;;;19.00;99.90;;;;;;4987572;28;20503;-85
2021/07/12 00:39:24;;;;;;;15.70;13.37;;;19.00;99.90;;;;;;4984173;28;20211;-86
2021/07/12 00:41:54;;;;;;;15.57;13.90;;;19.00;99.90;;;;;;4990098;28;20680;-85
2021/07/12 00:44:22;;;;;;;16.77;14.33;;;19.00;99.90;;;;;;4967700;28;20219;-86
2021/07/12 00:46:51;;;;;;;18.50;14.13;;;18.90;99.90;;;;;;4986559;28;20704;-88
2021/07/12 00:49:22;;;;;;;16.77;14.90;;;18.90;99.90;;;;;;4986907;28;20196;-86
2021/07/12 00:51:51;;;;;;;17.87;14.63;;;18.80;99.90;;;;;;4991297;28;20287;-85
2021/07/12 00:54:26;;;;;;;17.80;14.53;;;18.80;99.90;;;;;;4992150;28;20235;-85
2021/07/12 00:56:56;;;;;;;16.83;14.83;;;18.80;99.90;;;;;;4995192;28;20279;-87
2021/07/12 00:59:26;;;;;;;17.53;15.27;;;18.80;99.90;;;;;;4978054;28;20210;-86
2021/07/12 01:01:55;;;;;;;16.23;14.53;;;18.80;99.90;;;;;;4996186;28;20200;-85
2021/07/12 01:04:25;;;;;;;16.33;14.63;;;18.80;99.90;;;;;;5001844;28;20536;-86
2021/07/12 01:06:54;;;;;;;16.57;14.00;;;18.80;99.90;;;;;;5012263;28;20294;-88
2021/07/12 01:09:23;;;;;;;15.80;14.20;;;18.80;99.90;;;;;;5006518;28;20491;-85
2021/07/12 01:11:58;;;;;;;15.07;13.53;;;18.80;99.90;;;;;;5005609;28;20260;-85
2021/07/12 01:14:36;;;;;;;15.03;13.37;;;18.80;99.90;;;;;;4999937;28;20227;-87
2021/07/12 01:17:15;;;;;;;15.93;13.70;;;18.80;99.90;;;;;;5007184;28;20385;-87
2021/07/12 01:20:33;;;;;;;14.07;12.67;;;18.80;99.90;;;;;;5009569;28;20222;-87
2021/07/12 01:23:30;;;;;;;14.80;13.20;;;18.70;99.90;;;;;;5005085;28;20212;-86
2021/07/12 01:26:46;;;;;;;16.80;14.23;;;18.70;99.90;;;;;;5002334;28;20280;-85
2021/07/12 01:29:28;;;;;;;15.87;13.60;;;18.70;99.90;;;;;;4999273;28;20200;-86
2021/07/12 01:32:17;;;;;;;14.83;13.33;;;18.70;99.90;;;;;;5006824;28;20211;-85
2021/07/12 01:34:56;;;;;;;17.73;14.77;;;18.70;99.90;;;;;;5006153;28;20526;-85
2021/07/12 01:37:35;;;;;;;15.43;13.70;;;18.70;99.90;;;;;;5005956;28;20402;-86
2021/07/12 01:40:08;;;;;;;17.37;14.23;;;18.60;99.90;;;;;;5010336;28;20196;-87
2021/07/12 01:42:43;;;;;;;16.17;14.47;;;18.70;99.90;;;;;;5009204;28;20195;-86
2021/07/12 01:45:15;;;;;;;16.53;14.70;;;18.70;99.90;;;;;;5005225;28;20231;-86
2021/07/12 01:48:00;;;;;;;16.33;14.40;;;18.70;99.90;;;;;;5002447;28;20179;-86
2021/07/12 01:50:35;;;;;;;15.63;14.10;;;18.60;99.90;;;;;;5006730;28;20278;-84
2021/07/12 01:53:17;;;;;;;18.50;15.23;;;18.60;99.90;;;;;;5007473;28;20207;-85
2021/07/12 01:55:55;;;;;;;17.53;15.73;;;18.60;99.90;;;;;;5008714;28;20210;-85
2021/07/12 01:58:31;;;;;;;18.57;15.63;;;18.50;99.90;;;;;;4988691;28;20204;-86
2021/07/12 02:01:00;;;;;;;17.60;15.47;;;18.50;99.90;;;;;;4993123;28;20211;-85
2021/07/12 02:03:32;;;;;;;19.00;15.57;;;18.50;99.90;;;;;;4987266;28;20869;-85
2021/07/12 02:06:05;;;;;;;16.87;14.77;;;18.50;99.90;;;;;;4994851;28;20204;-88
2021/07/12 02:08:38;;;;;;;16.07;14.37;;;18.50;99.90;;;;;;4995814;28;20900;-86
2021/07/12 02:11:07;;;;;;;18.03;16.07;;;18.50;99.90;;;;;;5003490;28;20204;-86
2021/07/12 02:13:37;;;;;;;17.50;15.37;;;18.50;99.90;;;;;;4996849;28;20450;-85
2021/07/12 02:16:08;;;;;;;16.20;14.50;;;18.40;99.90;;;;;;5000346;28;21030;-84
2021/07/12 02:18:39;;;;;;;16.93;14.33;;;18.40;99.90;;;;;;4981239;28;20216;-86
2021/07/12 02:21:12;;;;;;;16.80;13.47;;;18.40;99.90;;;;;;4983653;28;20196;-86
2021/07/12 02:23:42;;;;;;;14.83;13.20;;;18.40;99.90;;;;;;4977070;28;20247;-88
2021/07/12 02:26:13;;;;;;;15.00;13.50;;;18.40;99.90;;;;;;4986454;28;20208;-85
2021/07/12 02:28:47;;;;;;;15.07;13.47;;;18.40;99.90;;;;;;4983390;28;20256;-83
2021/07/12 02:31:18;;;;;;;15.50;13.03;;;18.40;99.90;;;;;;4990391;28;20212;-87
2021/07/12 02:33:48;;;;;;;17.10;14.00;;;18.40;99.90;;;;;;4967248;28;20236;-84
2021/07/12 02:36:20;;;;;;;15.13;13.50;;;18.40;99.90;;;;;;4993905;28;20208;-86
2021/07/12 02:38:51;;;;;;;17.17;14.13;;;18.40;99.90;;;;;;4994322;28;20223;-84
2021/07/12 02:41:21;;;;;;;15.50;13.90;;;18.40;99.90;;;;;;4987066;28;20211;-86
2021/07/12 02:43:52;;;;;;;15.77;14.10;;;18.40;99.90;;;;;;5000584;28;20204;-84
2021/07/12 02:46:22;;;;;;;14.47;12.97;;;18.40;99.90;;;;;;4988700;28;20232;-86
2021/07/12 02:48:55;;;;;;;16.50;13.47;;;18.40;99.90;;;;;;4987703;28;20200;-86
2021/07/12 02:51:32;;;;;;;18.47;13.70;;;18.40;99.90;;;;;;4992634;28;20211;-85
2021/07/12 02:54:04;;;;;;;16.90;13.93;;;18.40;99.90;;;;;;4978948;28;20741;-86
2021/07/12 02:56:33;;;;;;;14.20;12.67;;;18.40;99.90;;;;;;4985439;28;20238;-87
2021/07/12 02:59:03;;;;;;;15.10;13.60;;;18.40;99.90;;;;;;4979833;28;20203;-86
2021/07/12 03:01:32;;;;;;;15.07;13.43;;;18.40;99.90;;;;;;4979804;28;20231;-86
2021/07/12 03:04:01;;;;;;;14.80;13.30;;;18.50;99.90;;;;;;4964721;28;20204;-86
2021/07/12 03:06:33;;;;;;;14.53;13.03;;;18.40;99.90;;;;;;4974581;28;20218;-87
2021/07/12 03:09:05;;;;;;;17.37;12.97;;;18.50;99.90;;;;;;4985062;28;20258;-83
2021/07/12 03:11:39;;;;;;;13.67;12.13;;;18.50;99.90;;;;;;5069994;23;20369;-87
2021/07/12 03:14:14;;;;;;;14.67;12.30;;;18.50;99.90;;;;;;5021475;28;20227;-84
2021/07/12 03:16:45;;;;;;;12.67;11.37;;;18.50;99.90;;;;;;5023013;28;20217;-87
2021/07/12 03:19:25;;;;;;;13.67;12.30;;;18.50;99.90;;;;;;5018949;28;20294;-87
2021/07/12 03:21:59;;;;;;;12.20;10.90;;;18.50;99.90;;;;;;5023178;28;20580;-82
2021/07/12 03:24:30;;;;;;;12.90;11.40;;;18.50;99.90;;;;;;5017572;28;20206;-86
2021/07/12 03:27:03;;;;;;;12.37;11.17;;;18.60;99.90;;;;;;5012407;28;20200;-85
2021/07/12 03:29:36;;;;;;;12.83;11.10;;;18.60;99.90;;;;;;5009431;28;20211;-86
2021/07/12 03:32:09;;;;;;;11.97;10.87;;;18.60;99.90;;;;;;5004922;28;20217;-86
2021/07/12 03:34:39;;;;;;;13.30;11.50;;;18.70;99.90;;;;;;5005462;28;20618;-86
2021/07/12 03:37:10;;;;;;;12.70;11.53;;;18.70;99.90;;;;;;4999768;28;20207;-85
2021/07/12 03:39:39;;;;;;;12.83;11.53;;;18.80;99.90;;;;;;5004830;28;20733;-84
2021/07/12 03:42:09;;;;;;;12.53;11.00;;;18.80;99.90;;;;;;5000738;28;20214;-85
2021/07/12 03:44:40;;;;;;;12.57;11.30;;;18.80;99.90;;;;;;4998793;28;20207;-85
2021/07/12 03:47:09;;;;;;;11.87;10.30;;;18.90;99.90;;;;;;5013999;28;20391;-87
2021/07/12 03:49:39;;;;;;;11.57;10.50;;;18.90;99.90;;;;;;4979403;28;20677;-84
2021/07/12 03:52:09;;;;;;;12.50;11.20;;;19.00;99.90;;;;;;5001719;28;20261;-85
2021/07/12 03:54:39;;;;;;;12.70;11.37;;;19.00;99.90;;;;;;4995473;28;20230;-85
2021/07/12 03:57:08;;;;;;;13.37;11.80;;;19.00;99.90;;;;;;4997669;28;20500;-84
2021/07/12 03:59:36;;;;;;;13.63;12.23;;;19.10;99.90;;;;;;5001782;28;20290;-86
2021/07/12 04:02:05;;;;;;;11.73;10.53;;;19.20;99.90;;;;;;5003635;28;20215;-85
2021/07/12 04:04:34;;;;;;;13.10;11.60;;;19.30;99.90;;;;;;4997729;28;20195;-85
2021/07/12 04:07:03;;;;;;;12.63;11.33;;;19.40;99.90;;;;;;4999225;28;20214;-86
2021/07/12 04:09:34;;;;;;;13.13;11.90;;;19.60;99.90;;;;;;4998530;28;20214;-86
2021/07/12 04:12:03;;;;;;;12.83;11.53;;;19.70;99.90;;;;;;4996547;28;20453;-87
2021/07/12 04:14:32;;;;;;;13.70;12.30;;;19.70;99.90;;;;;;4999046;28;20723;-86
2021/07/12 04:17:01;;;;;;;13.00;11.70;;;19.90;99.90;;;;;;4982691;28;21578;-84
2021/07/12 04:19:33;;;;;;;12.97;11.60;;;20.00;99.90;;;;;;5011685;28;20981;-85
2021/07/12 04:22:03;;;;;;;13.70;12.30;;;20.10;99.90;;;;;;5004064;28;20725;-87
2021/07/12 04:24:32;;;;;;;15.23;12.73;;;20.10;99.90;;;;;;5012998;28;20227;-87
2021/07/12 04:27:06;;;;;;;13.83;12.53;;;20.20;99.90;;;;;;5009781;28;20604;-85
2021/07/12 04:29:35;;;;;;;14.37;12.77;;;20.20;99.90;;;;;;4993810;28;20206;-87
2021/07/12 04:32:05;;;;;;;13.37;12.07;;;20.20;99.90;;;;;;5018797;28;20199;-84
2021/07/12 04:34:34;;;;;;;13.53;12.23;;;20.20;99.90;;;;;;5017243;28;20211;-84
2021/07/12 04:37:05;;;;;;;13.60;12.30;;;20.40;99.90;;;;;;4998924;28;20241;-84
2021/07/12 04:39:37;;;;;;;13.47;12.00;;;20.50;99.90;;;;;;5010317;28;20199;-85
2021/07/12 04:42:10;;;;;;;14.07;12.67;;;20.50;99.90;;;;;;5010303;28;20286;-85
2021/07/12 04:44:40;;;;;;;13.97;12.47;;;20.70;99.90;;;;;;5126708;23;20239;-88
2021/07/12 04:47:10;;;;;;;14.17;12.77;;;20.80;99.90;;;;;;4991761;28;20227;-83
2021/07/12 04:49:40;;;;;;;13.43;12.23;;;21.00;99.90;;;;;;4970764;28;20208;-87
2021/07/12 04:52:12;;;;;;;13.52;12.23;;;21.10;99.90;;;;;;4971652;28;20207;-88
2021/07/12 04:54:43;;;;;;;13.27;12.07;;;21.20;99.90;;;;;;4906274;28;20472;-85
2021/07/12 04:57:17;;;;;;;15.07;13.48;;;21.20;99.90;;;;;;4924027;28;20799;-84
2021/07/12 04:59:47;;;;;;;14.55;13.05;;;21.30;99.90;;;;;;4935142;28;20234;-86
2021/07/12 05:02:18;;;;;;;13.50;12.10;;;21.40;99.90;;;;;;4928054;28;20536;-85
2021/07/12 05:04:49;;;;;;;14.38;12.93;;;21.40;99.90;;;;;;4959581;28;20208;-86
2021/07/12 05:07:19;;;;;;;14.98;13.48;;;21.40;99.90;;;;;;4966084;28;20206;-85
2021/07/12 05:09:48;;;;;;;13.75;12.45;;;21.50;99.90;;;;;;4985101;28;20203;-88
2021/07/12 05:12:21;;;;;;;14.38;13.05;;;21.60;99.90;;;;;;4984579;28;21202;-84
2021/07/12 05:14:50;;;;;;;15.32;13.20;;;21.70;99.90;;;;;;4982971;28;20698;-85
2021/07/12 05:17:21;;;;;;;14.20;12.80;;;21.70;99.90;;;;;;4980819;28;20227;-87
2021/07/12 05:19:51;;;;;;;14.85;12.82;;;21.70;99.90;;;;;;5050435;23;20489;-85
2021/07/12 05:22:22;;;;;;;15.15;13.35;;;21.90;99.90;;;;;;4991759;28;20205;-86
2021/07/12 05:24:52;;;;;;;15.65;13.75;;;22.00;99.90;;;;;;5002281;28;20228;-85
2021/07/12 05:27:24;;;;;;;16.05;14.55;;;22.10;99.90;;;;;;4980629;28;21106;-85
2021/07/12 05:29:54;;;;;;;15.38;13.52;;;22.20;99.90;;;;;;4991397;28;20215;-86
2021/07/12 05:32:23;;;;;;;14.48;13.13;;;22.40;99.90;;;;;;5003434;28;20212;-85
2021/07/12 05:34:52;;;;;;;15.80;14.20;;;22.50;99.90;;;;;;4989667;28;21021;-87
2021/07/12 05:37:22;;;;;;;15.32;13.85;;;22.60;99.90;;;;;;4985801;28;20724;-84
2021/07/12 05:39:50;;;;;;;14.75;13.40;;;22.60;99.90;;;;;;4977882;28;20219;-86
2021/07/12 05:42:19;;;;;;;15.02;13.60;;;22.60;99.90;;;;;;4994870;28;20283;-85
2021/07/12 05:44:50;;;;;;;14.52;13.13;;;22.60;99.90;;;;;;4979595;28;21017;-87
2021/07/12 05:47:19;;;;;;;16.08;14.48;;;22.60;99.90;;;;;;4982048;28;20860;-86
2021/07/12 05:49:51;;;;;;;17.05;14.95;;;22.50;99.90;;;;;;4980603;28;20934;-85
2021/07/12 05:52:22;;;;;;;16.17;14.65;;;22.60;99.90;;;;;;4980392;28;20342;-87
2021/07/12 05:54:50;;;;;;;16.15;14.55;;;22.60;99.90;;;;;;4979566;28;20210;-87
2021/07/12 05:57:19;;;;;;;16.20;14.60;;;22.70;99.90;;;;;;4978626;28;20239;-86
2021/07/12 05:59:49;;;;;;;15.95;14.45;;;22.70;99.90;;;;;;4985515;28;20200;-87
2021/07/12 06:02:18;;;;;;;16.25;14.60;;;22.70;99.90;;;;;;4993486;28;20192;-85
2021/07/12 06:04:47;;;;;;;16.02;14.38;;;22.80;99.90;;;;;;4998717;28;20208;-86
2021/07/12 06:07:16;;;;;;;15.50;14.05;;;23.00;99.90;;;;;;4994976;28;20203;-87
2021/07/12 06:09:46;;;;;;;15.40;13.82;;;23.20;99.90;;;;;;4986810;28;20200;-88
2021/07/12 06:12:15;;;;;;;15.40;13.90;;;23.40;99.90;;;;;;4981822;28;20610;-87
2021/07/12 06:14:44;;;;;;;16.00;14.40;;;23.30;99.60;;;;;;5005030;28;20193;-88
2021/07/12 06:17:14;;;;;;;17.63;15.93;;;23.40;99.90;;;;;;4994795;28;20200;-85
2021/07/12 06:19:43;;;;;;;17.30;15.52;;;23.40;99.90;;;;;;4972456;28;20686;-88
2021/07/12 06:22:13;;;;;;;17.10;15.45;;;23.40;99.30;;;;;;4968626;28;20356;-85
2021/07/12 06:24:42;;;;;;;16.70;15.10;;;23.40;99.90;;;;;;4973860;28;20258;-88
2021/07/12 06:27:12;;;;;;;18.33;15.38;;;23.60;98.80;;;;;;4969287;28;20243;-87
2021/07/12 06:29:41;;;;;;;16.88;15.23;;;23.70;98.20;;;;;;4986663;28;20215;-86
2021/07/12 06:32:10;;;;;;;17.13;15.55;;;23.80;99.90;;;;;;4983231;28;20739;-86
2021/07/12 06:34:40;;;;;;;16.40;14.77;;;23.90;98.90;;;;;;4980603;28;20207;-86
2021/07/12 06:37:12;;;;;;;15.85;14.45;;;24.10;99.60;;;;;;4984812;28;20227;-86
2021/07/12 06:39:41;;;;;;;16.63;14.98;;;24.30;97.80;;;;;;4994792;28;20217;-87
2021/07/12 06:42:13;;;;;;;15.32;13.85;;;24.30;96.50;;;;;;4958970;28;20212;-88
2021/07/12 06:44:57;;;;;;;17.35;15.63;;;24.40;96.70;;;;;;4974429;28;20270;-89
2021/07/12 06:47:28;;;;;;;16.83;15.02;;;24.30;96.30;;;;;;4981166;28;20298;-87
2021/07/12 06:49:59;;;;;;;17.60;15.45;;;24.10;98.30;;;;;;4984601;28;20204;-86
2021/07/12 06:52:28;;;;;;;15.60;14.20;;;24.20;99.20;;;;;;4935774;28;20214;-88
2021/07/12 06:54:56;;;;;;;16.20;14.60;;;24.50;99.90;;;;;;4971714;28;20215;-84
2021/07/12 06:57:25;;;;;;;16.58;14.98;;;24.70;96.60;;;;;;4957078;28;21154;-87
2021/07/12 06:59:56;;;;;;;15.57;14.20;;;24.70;96.00;;;;;;4962880;28;20496;-84
2021/07/12 07:02:25;;;;;;;16.48;14.77;;;24.90;96.80;;;;;;4982587;28;20206;-84
2021/07/12 07:04:55;;;;;;;17.58;15.88;;;25.20;95.10;;;;;;4980522;28;20621;-87
2021/07/12 07:07:25;;;;;;;16.42;14.70;;;25.20;93.90;;;;;;4975900;28;20208;-87
2021/07/12 07:09:54;;;;;;;15.90;14.32;;;25.00;94.70;;;;;;4974962;28;20304;-87
2021/07/12 07:12:23;;;;;;;16.98;15.55;;;25.10;96.00;;;;;;4975639;28;20212;-86
2021/07/12 07:14:52;;;;;;;16.25;14.60;;;25.30;94.30;;;;;;4970255;28;20227;-86
2021/07/12 07:17:21;;;;;;;16.30;14.85;;;25.50;94.10;;;;;;4961701;28;20224;-86
2021/07/12 07:19:52;;;;;;;16.85;15.45;;;25.60;93.30;;;;;;4964616;28;20223;-86
2021/07/12 07:22:21;;;;;;;17.27;15.77;;;25.80;93.00;;;;;;4979231;28;20210;-87
2021/07/12 07:24:52;;;;;;;16.27;14.88;;;25.90;92.90;;;;;;4979501;28;20919;-85
2021/07/12 07:27:41;;;;;;;16.23;14.70;;;25.80;93.50;;;;;;4981157;28;20841;-86
2021/07/12 07:30:13;;;;;;;16.92;15.27;;;25.90;93.30;;;;;;4980763;28;20651;-86
2021/07/12 07:32:43;;;;;;;16.10;14.80;;;25.90;93.40;;;;;;4978601;28;20262;-86
2021/07/12 07:35:13;;;;;;;16.48;14.35;;;25.70;93.30;;;;;;5006748;28;20346;-87
2021/07/12 07:37:43;;;;;;;16.08;14.45;;;25.80;92.80;;;;;;4982978;28;20227;-87
2021/07/12 07:40:18;;;;;;;17.50;15.90;;;25.70;93.30;;;;;;4971373;28;20568;-89
2021/07/12 07:42:47;;;;;;;18.52;16.98;;;25.70;93.70;;;;;;4975576;28;20369;-87
2021/07/12 07:45:17;;;;;;;17.33;15.73;;;25.70;94.60;;;;;;4961411;28;20269;-87
2021/07/12 07:47:48;;;;;;;17.38;15.70;;;25.90;93.60;;;;;;4971375;28;20208;-88
2021/07/12 07:50:22;;;;;;;18.10;16.40;;;26.00;94.00;;;;;;4986679;28;20714;-88
2021/07/12 07:52:52;;;;;;;18.20;16.40;;;26.20;93.20;;;;;;4981600;28;20212;-87
2021/07/12 07:55:24;;;;;;;16.55;15.05;;;26.50;93.00;;;;;;4985960;28;20211;-87
2021/07/12 07:57:52;;;;;;;18.92;16.20;;;26.60;92.30;;;;;;4975796;28;20306;-87
2021/07/12 08:00:23;;;;;;;16.25;14.85;;;26.80;92.30;;;;;;5006367;28;20234;-86
2021/07/12 08:02:53;;;;;;;16.80;15.32;;;26.80;91.80;;;;;;4988958;28;20219;-86
2021/07/12 08:05:22;;;;;;;17.50;15.98;;;26.80;92.00;;;;;;4989821;28;20214;-88
2021/07/12 08:07:51;;;;;;;17.23;15.73;;;26.80;92.60;;;;;;4983141;28;20297;-87
2021/07/12 08:10:21;;;;;;;17.13;15.52;;;27.00;91.70;;;;;;4988543;28;20600;-86
2021/07/12 08:12:51;;;;;;;16.85;15.32;;;27.00;92.10;;;;;;5001630;28;20267;-88
2021/07/12 08:15:25;;;;;;;16.90;15.45;;;27.20;92.70;;;;;;5003406;28;20366;-88
2021/07/12 08:17:55;;;;;;;16.35;14.95;;;27.20;91.50;;;;;;4991671;28;20407;-87
2021/07/12 08:20:28;;;;;;;16.60;15.23;;;27.30;92.10;;;;;;4997312;28;20692;-87
2021/07/12 08:22:57;;;;;;;15.63;14.23;;;27.20;91.60;;;;;;4978369;28;20215;-87
2021/07/12 08:25:27;;;;;;;16.98;15.55;;;27.20;91.20;;;;;;4983823;28;20204;-87
2021/07/12 08:27:58;;;;;;;16.10;14.73;;;27.40;91.00;;;;;;4989521;28;20496;-87
2021/07/12 08:30:26;;;;;;;16.52;15.00;;;27.40;92.10;;;;;;4976722;28;20218;-86
2021/07/12 08:32:56;;;;;;;16.65;15.20;;;27.40;91.00;;;;;;4981391;28;20208;-86
2021/07/12 08:35:25;;;;;;;17.40;15.75;;;27.20;91.50;;;;;;4963011;28;20196;-87
2021/07/12 08:37:54;;;;;;;17.08;15.30;;;27.20;91.30;;;;;;4974271;28;20222;-86
2021/07/12 08:40:25;;;;;;;17.23;15.45;;;27.10;91.50;;;;;;5002274;28;20365;-87
2021/07/12 08:42:57;;;;;;;16.27;14.98;;;27.20;91.60;;;;;;4994230;28;20211;-86
2021/07/12 08:45:28;;;;;;;16.30;14.90;;;27.50;90.90;;;;;;4976817;28;20203;-86
2021/07/12 08:47:57;;;;;;;18.65;15.77;;;27.70;90.80;;;;;;4970819;28;21426;-87
2021/07/12 08:50:28;;;;;;;15.48;14.00;;;27.70;90.40;;;;;;4978455;28;20195;-87
2021/07/12 08:52:58;;;;;;;17.20;15.60;;;27.60;90.30;;;;;;4983159;28;20226;-87
2021/07/12 08:55:30;;;;;;;16.20;14.82;;;27.60;88.90;;;;;;4980677;28;20587;-87
2021/07/12 08:58:04;;;;;;;16.88;15.50;;;27.60;88.90;;;;;;4973423;28;20230;-87
2021/07/12 09:00:40;;;;;;;16.65;15.05;;;27.80;88.70;;;;;;4976577;28;20671;-87
2021/07/12 09:03:27;;;;;;;14.98;13.68;;;28.10;88.50;;;;;;4984196;28;20294;-84
2021/07/12 09:06:09;;;;;;;14.98;13.68;;;28.40;89.00;;;;;;4964454;28;20215;-86
2021/07/12 09:08:44;;;;;;;15.48;13.82;;;28.50;87.90;;;;;;4975621;28;20235;-88
2021/07/12 09:11:17;;;;;;;14.52;13.13;;;28.70;87.10;;;;;;4895820;28;20715;-87
2021/07/12 09:13:57;;;;;;;14.40;13.15;;;28.80;86.70;;;;;;4985972;28;20206;-87
2021/07/12 09:16:41;;;;;;;13.48;12.38;;;28.90;86.60;;;;;;4978717;28;20210;-86
2021/07/12 09:19:16;;;;;;;14.52;13.32;;;29.00;85.90;;;;;;4951011;28;20263;-88
2021/07/12 09:21:48;;;;;;;14.20;13.10;;;28.90;86.10;;;;;;4978189;28;20195;-88
2021/07/12 09:24:28;;;;;;;15.75;14.15;;;28.80;85.80;;;;;;4967245;28;20719;-86
2021/07/12 09:27:03;;;;;;;14.18;12.93;;;28.90;86.40;;;;;;4997268;28;20860;-87
2021/07/12 09:29:36;;;;;;;14.50;13.15;;;28.80;86.70;;;;;;5005345;28;20322;-86
2021/07/12 09:32:08;;;;;;;13.10;12.00;;;28.90;86.60;;;;;;4984391;28;20798;-88
2021/07/12 09:34:38;;;;;;;15.45;13.20;;;29.00;86.40;;;;;;4996684;28;20220;-88
2021/07/12 09:37:08;;;;;;;14.07;12.77;;;29.20;86.00;;;;;;4983360;28;20354;-85
2021/07/12 09:39:39;;;;;;;13.95;12.75;;;29.30;85.50;;;;;;5000683;28;20207;-86
2021/07/12 09:42:11;;;;;;;13.75;12.55;;;29.50;85.60;;;;;;5008755;28;20345;-87
2021/07/12 09:44:44;;;;;;;11.75;10.85;;;29.60;85.20;;;;;;5006773;28;20191;-83
2021/07/12 09:47:19;;;;;;;12.43;11.32;;;29.70;84.30;;;;;;5001615;28;20187;-87
2021/07/12 09:49:48;;;;;;;13.57;12.38;;;29.80;84.20;;;;;;5004471;28;20204;-84
2021/07/12 09:52:20;;;;;;;11.70;10.80;;;29.80;84.90;;;;;;4996810;28;20211;-85
2021/07/12 09:54:52;;;;;;;12.85;11.77;;;29.80;83.00;;;;;;5007086;28;20426;-86
2021/07/12 09:57:25;;;;;;;12.68;11.43;;;29.90;83.50;;;;;;4999296;28;20671;-86
2021/07/12 10:00:01;;;;;;;12.38;11.35;;;30.10;83.80;;;;;;5009137;28;20184;-85
2021/07/12 10:02:32;;;;;;;12.52;11.38;;;30.00;82.80;;;;;;5001184;28;20209;-86
2021/07/12 10:05:03;;;;;;;13.05;11.75;;;29.90;82.00;;;;;;4990755;28;20210;-86
2021/07/12 10:07:34;;;;;;;12.50;11.35;;;29.60;82.40;;;;;;4972471;28;20413;-86
2021/07/12 10:46:52;;;;;;;11.63;10.70;;;29.70;81.70;;;;;;4808009;29;20223;-88
2021/07/12 11:13:05;;;;;;;8.77;8.07;;;30.30;74.40;;;;;;4846097;28;20288;-87
2021/07/12 11:32:54;;;;;;;9.00;8.20;;;30.50;74.50;;;;;;4748806;29;21141;-87
2021/07/12 11:35:23;;;;;;;8.77;7.88;;;30.50;75.00;;;;;;4763245;29;20204;-84
2021/07/12 11:37:52;;;;;;;9.07;8.13;;;30.60;74.50;;;;;;4755990;29;20507;-84
2021/07/12 11:40:22;;;;;;;8.70;8.00;;;30.60;72.90;;;;;;4774939;29;20224;-86
2021/07/12 11:42:51;;;;;;;8.93;8.23;;;30.60;71.60;;;;;;4756348;29;20832;-87
2021/07/12 11:45:23;;;;;;;9.35;7.75;;;30.70;73.00;;;;;;4767339;29;20753;-84
2021/07/12 11:47:56;;;;;;;9.00;8.30;;;30.70;73.00;;;;;;4761955;29;20518;-85
2021/07/12 11:50:29;;;;;;;9.35;8.40;;;30.70;73.20;;;;;;4782771;29;20229;-87
2021/07/12 11:53:06;;;;;;;9.68;8.98;;;30.90;73.20;;;;;;4791332;29;20260;-84
2021/07/12 11:55:38;;;;;;;9.93;9.05;;;30.60;73.30;;;;;;4822948;29;20220;-87
2021/07/12 11:58:08;;;;;;;10.52;9.63;;;30.30;73.80;;;;;;4839820;29;20259;-85
2021/07/12 12:00:41;;;;;;;9.70;8.80;;;30.10;73.80;;;;;;4849350;29;20226;-91
2021/07/12 12:03:13;;;;;;;10.82;9.13;;;30.10;74.30;;;;;;4917001;29;20205;-85
2021/07/12 12:05:44;;;;;;;9.32;8.60;;;30.30;75.70;;;;;;4912470;28;21097;-85
2021/07/12 12:08:16;;;;;;;8.48;7.60;;;30.60;73.60;;;;;;4915709;29;20207;-85
2021/07/12 12:10:47;;;;;;;8.55;7.85;;;30.90;70.90;;;;;;4933015;28;20397;-86
2021/07/12 12:13:18;;;;;;;8.50;7.72;;;31.10;71.30;;;;;;4909584;28;20257;-86
2021/07/12 12:15:49;;;;;;;8.80;7.93;;;31.20;70.20;;;;;;4921591;29;20219;-88
2021/07/12 12:18:22;;;;;;;8.38;7.57;;;31.40;70.70;;;;;;4910503;29;20292;-83
2021/07/12 12:20:53;;;;;;;8.10;7.40;;;31.50;69.10;;;;;;4915117;29;21414;-84
2021/07/12 12:23:26;;;;;;;8.98;8.18;;;31.60;69.20;;;;;;4918365;29;20283;-83
2021/07/12 12:25:57;;;;;;;9.65;8.02;;;31.70;70.20;;;;;;4918000;29;20301;-84
2021/07/12 12:28:31;;;;;;;7.72;7.20;;;31.40;68.60;;;;;;4915290;28;20431;-86
2021/07/12 12:31:06;;;;;;;8.20;7.50;;;31.20;68.10;;;;;;4924686;28;20798;-88
2021/07/12 12:33:59;;;;;;;8.57;7.78;;;30.90;68.40;;;;;;4953184;28;20888;-86
2021/07/12 12:36:31;;;;;;;8.52;7.68;;;30.70;68.10;;;;;;4952760;28;20208;-87
2021/07/12 12:39:07;;;;;;;9.35;8.55;;;30.90;69.10;;;;;;4947457;28;20231;-84
2021/07/12 12:41:39;;;;;;;9.30;8.50;;;31.40;68.90;;;;;;4952370;28;20212;-87
2021/07/12 12:44:10;;;;;;;9.55;8.75;;;31.70;69.20;;;;;;4947583;28;20765;-84
2021/07/12 12:46:40;;;;;;;9.32;8.63;;;32.00;68.10;;;;;;4953363;28;20876;-84
2021/07/12 12:49:18;;;;;;;9.27;8.38;;;32.20;68.50;;;;;;4963828;28;20204;-84
2021/07/12 12:51:52;;;;;;;9.63;8.38;;;32.40;68.50;;;;;;4961023;28;20811;-86
2021/07/12 12:54:22;;;;;;;9.13;8.43;;;32.50;67.60;;;;;;4951751;28;20445;-83
2021/07/12 12:56:53;;;;;;;9.15;8.45;;;32.40;67.20;;;;;;4948234;28;20240;-87
2021/07/12 12:59:31;;;;;;;9.40;8.60;;;32.10;66.80;;;;;;4953304;28;20533;-86
2021/07/12 13:02:04;;;;;;;9.32;8.50;;;31.70;66.40;;;;;;4956599;28;20220;-86
2021/07/12 13:04:47;;;;;;;9.30;8.50;;;31.60;67.20;;;;;;4938353;28;20225;-87
2021/07/12 13:07:17;;;;;;;9.10;8.40;;;31.60;66.70;;;;;;4940809;28;21299;-86
2021/07/12 13:09:47;;;;;;;9.25;8.45;;;31.50;67.10;;;;;;4948379;28;20213;-85
2021/07/12 13:12:18;;;;;;;10.48;9.48;;;31.30;66.80;;;;;;4952893;28;20607;-87
2021/07/12 13:14:49;;;;;;;9.18;8.27;;;31.40;68.30;;;;;;4950024;28;20322;-86
2021/07/12 13:17:23;;;;;;;9.05;8.25;;;31.70;68.80;;;;;;4947061;28;20629;-85
2021/07/12 13:19:58;;;;;;;9.43;8.50;;;32.20;69.30;;;;;;4946544;28;20726;-86
2021/07/12 13:22:31;;;;;;;8.90;8.18;;;32.60;67.20;;;;;;4948776;28;20216;-84
2021/07/12 13:25:07;;;;;;;9.35;8.57;;;32.90;67.80;;;;;;4951738;28;20765;-83
2021/07/12 13:27:38;;;;;;;9.73;8.82;;;33.10;66.80;;;;;;4945986;28;20212;-82
2021/07/12 13:30:09;;;;;;;8.18;7.45;;;33.30;67.70;;;;;;4950275;28;20248;-83
2021/07/12 13:32:41;;;;;;;8.13;7.43;;;33.10;65.50;;;;;;4936432;28;20322;-85
2021/07/12 13:35:13;;;;;;;8.68;7.70;;;32.60;65.20;;;;;;4952398;28;20723;-82
2021/07/12 13:37:43;;;;;;;9.40;7.95;;;32.40;66.10;;;;;;4950121;28;20735;-85
2021/07/12 13:40:13;;;;;;;8.32;7.63;;;32.50;66.10;;;;;;4952086;28;20624;-85
2021/07/12 13:42:41;;;;;;;8.00;7.40;;;32.80;66.60;;;;;;4951494;28;20659;-86
2021/07/12 13:45:12;;;;;;;8.30;7.43;;;33.00;65.40;;;;;;4954859;28;20297;-83
2021/07/12 13:47:41;;;;;;;8.18;7.35;;;33.10;65.30;;;;;;4949623;28;20236;-84
2021/07/12 13:50:18;;;;;;;8.07;7.35;;;33.30;64.20;;;;;;4948247;28;20213;-86
2021/07/12 13:52:49;;;;;;;7.72;7.10;;;33.60;64.30;;;;;;4958296;28;21104;-84
2021/07/12 13:55:20;;;;;;;8.38;7.60;;;33.70;63.60;;;;;;4958353;28;20208;-84
2021/07/12 13:57:54;;;;;;;8.25;7.47;;;33.90;63.50;;;;;;4957676;28;20787;-88
2021/07/12 14:00:25;;;;;;;8.70;7.90;;;33.90;64.30;;;;;;4960993;28;20737;-84
2021/07/12 14:02:55;;;;;;;8.25;7.47;;;33.60;63.10;;;;;;4962112;28;20214;-87
2021/07/12 14:05:25;;;;;;;8.45;7.75;;;33.70;63.40;;;;;;4967557;28;20228;-83
2021/07/12 14:07:54;;;;;;;8.40;7.63;;;33.40;63.50;;;;;;4966216;28;20681;-84
2021/07/12 14:10:24;;;;;;;8.55;7.85;;;33.40;63.40;;;;;;4957959;28;20201;-85
2021/07/12 14:12:53;;;;;;;8.38;7.68;;;33.20;63.60;;;;;;4980776;28;20197;-85